AirNav   Everest Fuels
 
 638 users online  

NH79 Falcon Station Heliport
West Epping, New Hampshire, USA

GOING TO WEST EPPING?


FAA INFORMATION EFFECTIVE 02 JANUARY 2020

Location

FAA Identifier: NH79
Lat/Long: 43-02-26.3070N 071-07-32.2190W
43-02.438450N 071-07.536983W
43.0406408,-71.1256164
(estimated)
Elevation: 160 ft. / 49 m (estimated)
Variation: 16W (1990)
From city: 2 miles W of WEST EPPING, NH
Time zone: UTC -5 (UTC -4 during Daylight Saving Time)
Zip code: 03042

Heliport Operations

Heliport use: Private use. Permission required prior to landing
Activation date: 02/1993
Control tower: no
ARTCC: BOSTON CENTER
FSS: BANGOR FLIGHT SERVICE STATION
Attendance: UNATNDD
Segmented circle: no

Heliport Communications

WX ASOS at MHT (15 nm SW): 119.55 (603-621-1766)
WX ASOS at DAW (17 nm NE): 135.275 (603-332-7814)
WX ASOS at CON (19 nm NW): 132.325 (603-224-6558)
WX ASOS at LWM (19 nm S): PHONE 978-687-8017

Nearby radio navigation aids

VOR radial/distance  VOR name  Freq  Var
PSMr274/13.1PEASE VOR/DME116.5016W
MHTr061/14.9MANCHESTER VOR/DME114.4015W
LWMr011/18.1LAWRENCE VOR/DME112.5015W
CONr134/22.4CONCORD VOR/DME112.9015W
ENEr241/32.2KENNEBUNK VOR/DME117.1017W

 
NDB name  Hdg/Dist  Freq  Var  ID
ROLLINS246/16.926016WESG . ... --.

Heliport Services

Runway Information

Helipad H1

Dimensions: 50 x 50 ft. / 15 x 15 m
Surface: turf
Traffic pattern: leftleft

Heliport Ownership and Management from official FAA records

Ownership: Privately-owned
Owner: MICHAEL E SWEENEY
NOTTINGHAM RD/FOLSOM MILL LA
WEST EPPING, NH 03042
Phone 603-679-5363
Manager: MICHAEL E SWEENEY
NOTTINGHAM RD/FOLSOM MILL LA
WEST EPPING, NH 08042
Phone 603-679-8304

Additional Remarks

A52-H1 TREES IN VICINITY OF PAD.
FOR CD CTC BOSTON APCH AT 603-594-5551.

Instrument Procedures

There are no published instrument procedures at NH79.

Some nearby airports with instrument procedures:

KPSM - Portsmouth International Airport at Pease (13 nm E)
KMHT - Manchester Airport (15 nm SW)
3B4 - Littlebrook Air Park (17 nm E)
KDAW - Skyhaven Airport (17 nm NE)
KCON - Concord Municipal Airport (19 nm NW)
KLWM - Lawrence Municipal Airport (19 nm S)
 
Loc | Ops | Rwys | IFR | FBO | Links
Com | Nav | Svcs | Stats | Notes
Area around NH79 (Falcon Station Heliport)
 
Road maps at: MapQuest Bing Google
 
Aerial photo
No photo
 
Sectional chart

 
Airport distance calculator
Flying to Falcon Station Heliport? Find the distance to fly.

From to NH79

Sunrise and sunset
Times for 26-Jan-2020
 Local
(UTC-5)
 Zulu
(UTC)
Morning civil twilight06:3611:36
Sunrise07:0712:07
Sunset16:4821:48
Evening civil twilight17:1822:18

Current date and time
Zulu (UTC)  26-Jan-2020 06:33:39
Local (UTC-5)  26-Jan-2020 01:33:39
 
METAR
KPSM 
14nm E 
260616Z 14008KT 1 3/4SM BR OVC003 08/08 A2965 RMK A02A DZB06E16 SLP044
KMHT 
15nm SW 
260553Z 31005KT 1/2SM R35/2400V3500FT -DZ BR OVC003 05/04 A2966 RMK AO2 SFC VIS 4 RAE0458DZB19 SLP062 P0001 60084 T00500044 10061 20044 56027
KDAW 
17nm NE 
260551Z AUTO 34004KT 1 3/4SM -RA BR OVC004 06/04 A2968 RMK AO2 SLP051 P0008 60117 T00560044 10061 20039 56044
KCON 
19nm NW 
260622Z AUTO 33007KT 2 1/2SM BR OVC007 03/02 A2968 RMK AO2 T00280017
KLWM 
19nm S 
260621Z AUTO 00000KT 1/2SM FG VV002 08/07 A2967 RMK AO2 T00780072 $
KASH 
24nm SW 
260616Z AUTO 30006KT 2 1/2SM BR OVC003 04/04 A2968 RMK AO2
KSFM 
27nm NE 
260624Z AUTO 01006KT 3/4SM -RA BR OVC004 05/05 A2969 RMK AO2 PNO $
TAF
KPSM 
14nm E 
260540Z 2606/2706 12010G18KT 2SM -SHRA BR OVC003 FM260900 29008KT 1SM BR OVC003 FM261300 26007KT 6SM BR SCT100 FM261600 25010G18KT P6SM FEW250
KMHT 
15nm SW 
260540Z 2606/2706 35005KT 2SM -SHRA BR OVC006 FM260800 VRB05KT 1SM BR SCT003 BKN005 FM261200 27005KT P6SM SCT006 BKN015 FM261400 26008G15KT P6SM FEW100
KCON 
19nm NW 
260540Z 2606/2706 VRB04KT 2SM -SHRA BR OVC008 FM260800 VRB04KT 1SM BR SCT003 OVC005 FM261100 VRB04KT 6SM BR SCT007 BKN010 FM261400 27006G15KT P6SM FEW100
NOTAMs
Click for the latest NOTAMs
NOTAMs are issued by the DoD/FAA and will open in a separate window not controlled by AirNav.

 

 
 

Would you like to see your business listed on this page?

 If your business provides an interesting product or service to pilots, flight crews, aircraft, or users of the Falcon Station Heliport, you should consider listing it here.  To start the listing process, click on the button below
 
Add a business
 

Other Pages about Falcon Station Heliport

Update a link
 
Copyright © AirNav, LLC. All rights reserved. Privacy Policy  Contact